sensor_id;sensor_type;location;lat;lon;timestamp;P1;durP1;ratioP1;P2;durP2;ratioP2
22166;SDS011;11249;52.468;13.776;2023-05-21T00:01:14;19.00;;;15.43;;
22166;SDS011;11249;52.468;13.776;2023-05-21T00:03:41;23.77;;;17.10;;
22166;SDS011;11249;52.468;13.776;2023-05-21T00:06:11;18.52;;;16.25;;
22166;SDS011;11249;52.468;13.776;2023-05-21T00:08:41;17.02;;;15.13;;
22166;SDS011;11249;52.468;13.776;2023-05-21T00:11:08;19.55;;;15.65;;
22166;SDS011;11249;52.468;13.776;2023-05-21T00:13:35;18.20;;;16.30;;
22166;SDS011;11249;52.468;13.776;2023-05-21T00:16:01;23.10;;;17.67;;
22166;SDS011;11249;52.468;13.776;2023-05-21T00:18:28;17.15;;;15.30;;
22166;SDS011;11249;52.468;13.776;2023-05-21T00:20:57;19.30;;;15.90;;
22166;SDS011;11249;52.468;13.776;2023-05-21T00:23:24;23.10;;;17.00;;
22166;SDS011;11249;52.468;13.776;2023-05-21T00:25:51;21.30;;;16.70;;
22166;SDS011;11249;52.468;13.776;2023-05-21T00:28:18;19.70;;;17.15;;
22166;SDS011;11249;52.468;13.776;2023-05-21T00:30:45;21.00;;;17.80;;
22166;SDS011;11249;52.468;13.776;2023-05-21T00:33:12;22.52;;;18.13;;
22166;SDS011;11249;52.468;13.776;2023-05-21T00:35:39;19.20;;;16.05;;
22166;SDS011;11249;52.468;13.776;2023-05-21T00:38:06;21.08;;;16.48;;
22166;SDS011;11249;52.468;13.776;2023-05-21T00:40:34;19.65;;;16.83;;
22166;SDS011;11249;52.468;13.776;2023-05-21T00:43:01;18.60;;;15.93;;
22166;SDS011;11249;52.468;13.776;2023-05-21T00:45:28;20.00;;;16.77;;
22166;SDS011;11249;52.468;13.776;2023-05-21T00:47:55;18.02;;;16.00;;
22166;SDS011;11249;52.468;13.776;2023-05-21T00:50:22;20.25;;;17.30;;
22166;SDS011;11249;52.468;13.776;2023-05-21T00:52:48;19.92;;;16.77;;
22166;SDS011;11249;52.468;13.776;2023-05-21T00:55:15;20.42;;;17.83;;
22166;SDS011;11249;52.468;13.776;2023-05-21T00:57:42;20.27;;;17.63;;
22166;SDS011;11249;52.468;13.776;2023-05-21T01:00:09;22.75;;;17.90;;
22166;SDS011;11249;52.468;13.776;2023-05-21T01:02:37;22.65;;;18.15;;
22166;SDS011;11249;52.468;13.776;2023-05-21T01:05:04;23.75;;;18.42;;
22166;SDS011;11249;52.468;13.776;2023-05-21T01:07:32;21.00;;;18.80;;
22166;SDS011;11249;52.468;13.776;2023-05-21T01:10:04;21.40;;;17.77;;
22166;SDS011;11249;52.468;13.776;2023-05-21T01:12:33;25.95;;;19.65;;
22166;SDS011;11249;52.468;13.776;2023-05-21T01:15:04;23.58;;;19.52;;
22166;SDS011;11249;52.468;13.776;2023-05-21T01:17:31;20.77;;;17.02;;
22166;SDS011;11249;52.468;13.776;2023-05-21T01:20:00;23.15;;;18.42;;
22166;SDS011;11249;52.468;13.776;2023-05-21T01:22:34;22.83;;;19.05;;
22166;SDS011;11249;52.468;13.776;2023-05-21T01:27:31;23.20;;;19.48;;
22166;SDS011;11249;52.468;13.776;2023-05-21T01:29:58;24.10;;;19.42;;
22166;SDS011;11249;52.468;13.776;2023-05-21T01:32:31;22.70;;;19.98;;
22166;SDS011;11249;52.468;13.776;2023-05-21T01:35:11;25.48;;;20.02;;
22166;SDS011;11249;52.468;13.776;2023-05-21T01:37:47;24.27;;;18.88;;
22166;SDS011;11249;52.468;13.776;2023-05-21T01:43:08;26.63;;;20.80;;
22166;SDS011;11249;52.468;13.776;2023-05-21T01:45:38;26.35;;;21.90;;
22166;SDS011;11249;52.468;13.776;2023-05-21T01:48:07;25.17;;;20.88;;
22166;SDS011;11249;52.468;13.776;2023-05-21T01:50:35;26.85;;;23.08;;
22166;SDS011;11249;52.468;13.776;2023-05-21T01:53:04;25.98;;;22.95;;
22166;SDS011;11249;52.468;13.776;2023-05-21T01:55:31;25.27;;;22.15;;
22166;SDS011;11249;52.468;13.776;2023-05-21T01:57:58;27.25;;;22.08;;
22166;SDS011;11249;52.468;13.776;2023-05-21T02:00:27;29.60;;;23.13;;
22166;SDS011;11249;52.468;13.776;2023-05-21T02:02:54;27.55;;;23.00;;
22166;SDS011;11249;52.468;13.776;2023-05-21T02:05:21;25.15;;;21.55;;
22166;SDS011;11249;52.468;13.776;2023-05-21T02:07:49;26.23;;;22.83;;
22166;SDS011;11249;52.468;13.776;2023-05-21T02:10:17;30.45;;;23.80;;
22166;SDS011;11249;52.468;13.776;2023-05-21T02:12:44;26.60;;;23.80;;
22166;SDS011;11249;52.468;13.776;2023-05-21T02:15:11;28.98;;;22.75;;
22166;SDS011;11249;52.468;13.776;2023-05-21T02:17:39;29.73;;;23.38;;
22166;SDS011;11249;52.468;13.776;2023-05-21T02:20:07;29.08;;;24.13;;
22166;SDS011;11249;52.468;13.776;2023-05-21T02:22:41;35.60;;;24.65;;
22166;SDS011;11249;52.468;13.776;2023-05-21T02:25:10;28.30;;;23.73;;
22166;SDS011;11249;52.468;13.776;2023-05-21T02:27:38;30.05;;;24.83;;
22166;SDS011;11249;52.468;13.776;2023-05-21T02:30:06;33.35;;;25.83;;
22166;SDS011;11249;52.468;13.776;2023-05-21T02:32:34;33.40;;;25.10;;
22166;SDS011;11249;52.468;13.776;2023-05-21T02:35:01;27.27;;;23.45;;
22166;SDS011;11249;52.468;13.776;2023-05-21T02:37:29;32.28;;;26.27;;
22166;SDS011;11249;52.468;13.776;2023-05-21T02:40:00;29.20;;;25.67;;
22166;SDS011;11249;52.468;13.776;2023-05-21T02:42:29;29.60;;;24.95;;
22166;SDS011;11249;52.468;13.776;2023-05-21T02:44:56;32.00;;;25.83;;
22166;SDS011;11249;52.468;13.776;2023-05-21T02:47:23;30.38;;;26.70;;
22166;SDS011;11249;52.468;13.776;2023-05-21T02:49:50;29.67;;;26.00;;
22166;SDS011;11249;52.468;13.776;2023-05-21T02:52:18;31.75;;;26.90;;
22166;SDS011;11249;52.468;13.776;2023-05-21T02:54:47;32.13;;;25.63;;
22166;SDS011;11249;52.468;13.776;2023-05-21T02:57:14;31.38;;;26.95;;
22166;SDS011;11249;52.468;13.776;2023-05-21T02:59:41;32.05;;;26.40;;
22166;SDS011;11249;52.468;13.776;2023-05-21T03:02:07;33.85;;;25.42;;
22166;SDS011;11249;52.468;13.776;2023-05-21T03:04:34;31.17;;;25.83;;
22166;SDS011;11249;52.468;13.776;2023-05-21T03:07:04;32.72;;;27.58;;
22166;SDS011;11249;52.468;13.776;2023-05-21T03:09:31;35.97;;;27.75;;
22166;SDS011;11249;52.468;13.776;2023-05-21T03:11:58;34.20;;;28.13;;
22166;SDS011;11249;52.468;13.776;2023-05-21T03:14:24;35.40;;;27.98;;
22166;SDS011;11249;52.468;13.776;2023-05-21T03:16:51;34.90;;;27.25;;
22166;SDS011;11249;52.468;13.776;2023-05-21T03:19:18;29.50;;;26.00;;
22166;SDS011;11249;52.468;13.776;2023-05-21T03:21:46;35.53;;;29.20;;
22166;SDS011;11249;52.468;13.776;2023-05-21T03:24:14;36.83;;;28.90;;
22166;SDS011;11249;52.468;13.776;2023-05-21T03:26:41;35.72;;;29.35;;
22166;SDS011;11249;52.468;13.776;2023-05-21T03:29:07;35.20;;;28.63;;
22166;SDS011;11249;52.468;13.776;2023-05-21T03:31:34;40.70;;;31.17;;
22166;SDS011;11249;52.468;13.776;2023-05-21T03:34:01;34.45;;;29.13;;
22166;SDS011;11249;52.468;13.776;2023-05-21T03:36:27;43.45;;;30.50;;
22166;SDS011;11249;52.468;13.776;2023-05-21T03:38:54;37.60;;;30.17;;
22166;SDS011;11249;52.468;13.776;2023-05-21T03:41:21;38.45;;;29.75;;
22166;SDS011;11249;52.468;13.776;2023-05-21T03:43:48;36.50;;;29.80;;
22166;SDS011;11249;52.468;13.776;2023-05-21T03:46:14;34.72;;;29.65;;
22166;SDS011;11249;52.468;13.776;2023-05-21T03:48:41;32.72;;;28.83;;
22166;SDS011;11249;52.468;13.776;2023-05-21T03:51:08;36.25;;;31.52;;
22166;SDS011;11249;52.468;13.776;2023-05-21T03:53:35;35.13;;;29.67;;
22166;SDS011;11249;52.468;13.776;2023-05-21T03:56:02;38.67;;;31.52;;
22166;SDS011;11249;52.468;13.776;2023-05-21T03:58:29;36.38;;;31.05;;
22166;SDS011;11249;52.468;13.776;2023-05-21T04:00:56;34.97;;;29.75;;
22166;SDS011;11249;52.468;13.776;2023-05-21T04:03:22;36.95;;;29.48;;
22166;SDS011;11249;52.468;13.776;2023-05-21T04:05:49;36.92;;;31.13;;
22166;SDS011;11249;52.468;13.776;2023-05-21T04:08:16;41.47;;;30.75;;
22166;SDS011;11249;52.468;13.776;2023-05-21T04:10:43;36.17;;;27.98;;
22166;SDS011;11249;52.468;13.776;2023-05-21T04:13:10;38.45;;;31.05;;
22166;SDS011;11249;52.468;13.776;2023-05-21T04:15:36;36.42;;;32.15;;
22166;SDS011;11249;52.468;13.776;2023-05-21T04:18:04;35.03;;;30.42;;
22166;SDS011;11249;52.468;13.776;2023-05-21T04:20:32;36.75;;;32.58;;
22166;SDS011;11249;52.468;13.776;2023-05-21T04:22:59;37.92;;;30.40;;
22166;SDS011;11249;52.468;13.776;2023-05-21T04:25:26;34.75;;;30.23;;
22166;SDS011;11249;52.468;13.776;2023-05-21T04:27:53;33.65;;;29.75;;
22166;SDS011;11249;52.468;13.776;2023-05-21T04:30:19;41.97;;;32.70;;
22166;SDS011;11249;52.468;13.776;2023-05-21T04:32:47;33.80;;;30.13;;
22166;SDS011;11249;52.468;13.776;2023-05-21T04:35:14;41.92;;;33.47;;
22166;SDS011;11249;52.468;13.776;2023-05-21T04:37:41;32.50;;;28.77;;
22166;SDS011;11249;52.468;13.776;2023-05-21T04:40:08;35.60;;;29.13;;
22166;SDS011;11249;52.468;13.776;2023-05-21T04:42:35;35.60;;;28.88;;
22166;SDS011;11249;52.468;13.776;2023-05-21T04:45:02;34.08;;;29.75;;
22166;SDS011;11249;52.468;13.776;2023-05-21T04:47:28;35.05;;;30.05;;
22166;SDS011;11249;52.468;13.776;2023-05-21T04:49:55;36.95;;;30.52;;
22166;SDS011;11249;52.468;13.776;2023-05-21T04:52:22;32.50;;;29.08;;
22166;SDS011;11249;52.468;13.776;2023-05-21T04:54:50;35.35;;;29.63;;
22166;SDS011;11249;52.468;13.776;2023-05-21T04:57:16;36.72;;;30.60;;
22166;SDS011;11249;52.468;13.776;2023-05-21T04:59:43;33.00;;;29.40;;
22166;SDS011;11249;52.468;13.776;2023-05-21T05:02:10;35.40;;;29.58;;
22166;SDS011;11249;52.468;13.776;2023-05-21T05:04:37;35.35;;;28.73;;
22166;SDS011;11249;52.468;13.776;2023-05-21T05:07:03;36.75;;;29.90;;
22166;SDS011;11249;52.468;13.776;2023-05-21T05:09:30;33.17;;;27.83;;
22166;SDS011;11249;52.468;13.776;2023-05-21T05:11:57;35.03;;;29.25;;
22166;SDS011;11249;52.468;13.776;2023-05-21T05:14:24;32.33;;;28.20;;
22166;SDS011;11249;52.468;13.776;2023-05-21T05:16:51;31.38;;;27.05;;
22166;SDS011;11249;52.468;13.776;2023-05-21T05:19:19;35.90;;;29.30;;
22166;SDS011;11249;52.468;13.776;2023-05-21T05:21:46;34.38;;;28.65;;
22166;SDS011;11249;52.468;13.776;2023-05-21T05:24:13;34.53;;;27.90;;
22166;SDS011;11249;52.468;13.776;2023-05-21T05:26:41;33.13;;;28.58;;
22166;SDS011;11249;52.468;13.776;2023-05-21T05:29:08;30.42;;;27.10;;
22166;SDS011;11249;52.468;13.776;2023-05-21T05:31:34;30.00;;;26.92;;
22166;SDS011;11249;52.468;13.776;2023-05-21T05:34:02;31.08;;;26.92;;
22166;SDS011;11249;52.468;13.776;2023-05-21T05:36:28;32.28;;;25.73;;
22166;SDS011;11249;52.468;13.776;2023-05-21T05:38:56;34.13;;;25.95;;
22166;SDS011;11249;52.468;13.776;2023-05-21T05:41:23;28.27;;;25.30;;
22166;SDS011;11249;52.468;13.776;2023-05-21T05:43:49;28.85;;;25.75;;
22166;SDS011;11249;52.468;13.776;2023-05-21T05:46:16;31.05;;;23.88;;
22166;SDS011;11249;52.468;13.776;2023-05-21T05:48:43;26.48;;;23.60;;
22166;SDS011;11249;52.468;13.776;2023-05-21T05:51:10;28.27;;;24.42;;
22166;SDS011;11249;52.468;13.776;2023-05-21T05:53:37;31.90;;;24.85;;
22166;SDS011;11249;52.468;13.776;2023-05-21T05:56:04;24.88;;;22.40;;
22166;SDS011;11249;52.468;13.776;2023-05-21T05:58:31;27.77;;;24.23;;
22166;SDS011;11249;52.468;13.776;2023-05-21T06:00:58;26.65;;;22.50;;
22166;SDS011;11249;52.468;13.776;2023-05-21T06:03:25;27.38;;;23.58;;
22166;SDS011;11249;52.468;13.776;2023-05-21T06:05:52;25.35;;;22.65;;
22166;SDS011;11249;52.468;13.776;2023-05-21T06:08:19;25.92;;;23.15;;
22166;SDS011;11249;52.468;13.776;2023-05-21T06:10:45;24.85;;;22.17;;
22166;SDS011;11249;52.468;13.776;2023-05-21T06:13:12;24.85;;;22.35;;
22166;SDS011;11249;52.468;13.776;2023-05-21T06:15:39;24.58;;;21.95;;
22166;SDS011;11249;52.468;13.776;2023-05-21T06:18:08;23.67;;;20.00;;
22166;SDS011;11249;52.468;13.776;2023-05-21T06:20:38;24.33;;;20.58;;
22166;SDS011;11249;52.468;13.776;2023-05-21T06:23:05;22.42;;;19.90;;
22166;SDS011;11249;52.468;13.776;2023-05-21T06:25:33;23.30;;;20.25;;
22166;SDS011;11249;52.468;13.776;2023-05-21T06:28:01;24.20;;;20.42;;
22166;SDS011;11249;52.468;13.776;2023-05-21T06:30:28;22.55;;;19.50;;
22166;SDS011;11249;52.468;13.776;2023-05-21T06:32:54;24.45;;;20.52;;
22166;SDS011;11249;52.468;13.776;2023-05-21T06:35:22;20.17;;;18.05;;
22166;SDS011;11249;52.468;13.776;2023-05-21T06:37:49;23.23;;;18.50;;
22166;SDS011;11249;52.468;13.776;2023-05-21T06:40:16;20.92;;;18.75;;
22166;SDS011;11249;52.468;13.776;2023-05-21T06:42:43;22.73;;;17.95;;
22166;SDS011;11249;52.468;13.776;2023-05-21T06:45:10;20.80;;;17.70;;
22166;SDS011;11249;52.468;13.776;2023-05-21T06:47:37;20.75;;;18.80;;
22166;SDS011;11249;52.468;13.776;2023-05-21T06:50:04;20.40;;;18.15;;
22166;SDS011;11249;52.468;13.776;2023-05-21T06:52:31;19.88;;;17.77;;
22166;SDS011;11249;52.468;13.776;2023-05-21T06:54:57;21.73;;;18.95;;
22166;SDS011;11249;52.468;13.776;2023-05-21T06:57:24;21.17;;;19.00;;
22166;SDS011;11249;52.468;13.776;2023-05-21T06:59:51;21.55;;;17.42;;
22166;SDS011;11249;52.468;13.776;2023-05-21T07:02:17;20.38;;;18.30;;
22166;SDS011;11249;52.468;13.776;2023-05-21T07:04:44;18.92;;;17.02;;
22166;SDS011;11249;52.468;13.776;2023-05-21T07:07:11;21.30;;;17.77;;
22166;SDS011;11249;52.468;13.776;2023-05-21T07:09:38;18.98;;;17.05;;
22166;SDS011;11249;52.468;13.776;2023-05-21T07:12:04;22.02;;;18.15;;
22166;SDS011;11249;52.468;13.776;2023-05-21T07:14:31;22.73;;;19.20;;
22166;SDS011;11249;52.468;13.776;2023-05-21T07:16:58;22.00;;;17.80;;
22166;SDS011;11249;52.468;13.776;2023-05-21T07:19:25;25.58;;;19.17;;
22166;SDS011;11249;52.468;13.776;2023-05-21T07:21:52;19.98;;;17.77;;
22166;SDS011;11249;52.468;13.776;2023-05-21T07:24:19;21.63;;;18.92;;
22166;SDS011;11249;52.468;13.776;2023-05-21T07:26:46;24.38;;;18.30;;
22166;SDS011;11249;52.468;13.776;2023-05-21T07:29:13;21.08;;;18.02;;
22166;SDS011;11249;52.468;13.776;2023-05-21T07:31:39;19.05;;;17.17;;
22166;SDS011;11249;52.468;13.776;2023-05-21T07:34:06;17.85;;;16.05;;
22166;SDS011;11249;52.468;13.776;2023-05-21T07:36:33;19.63;;;17.55;;
22166;SDS011;11249;52.468;13.776;2023-05-21T07:39:00;19.38;;;16.92;;
22166;SDS011;11249;52.468;13.776;2023-05-21T07:41:26;20.77;;;17.45;;
22166;SDS011;11249;52.468;13.776;2023-05-21T07:43:53;19.45;;;16.75;;
22166;SDS011;11249;52.468;13.776;2023-05-21T07:46:20;17.40;;;15.55;;
22166;SDS011;11249;52.468;13.776;2023-05-21T07:48:47;18.27;;;15.95;;
22166;SDS011;11249;52.468;13.776;2023-05-21T07:51:15;20.83;;;15.40;;
22166;SDS011;11249;52.468;13.776;2023-05-21T07:53:42;16.02;;;14.32;;
22166;SDS011;11249;52.468;13.776;2023-05-21T07:56:08;17.90;;;15.68;;
22166;SDS011;11249;52.468;13.776;2023-05-21T07:58:35;19.05;;;15.80;;
22166;SDS011;11249;52.468;13.776;2023-05-21T08:01:02;22.05;;;16.92;;
22166;SDS011;11249;52.468;13.776;2023-05-21T08:03:29;20.17;;;14.63;;
22166;SDS011;11249;52.468;13.776;2023-05-21T08:05:56;20.63;;;15.52;;
22166;SDS011;11249;52.468;13.776;2023-05-21T08:08:23;18.40;;;15.63;;
22166;SDS011;11249;52.468;13.776;2023-05-21T08:10:51;16.70;;;14.98;;
22166;SDS011;11249;52.468;13.776;2023-05-21T08:13:18;21.63;;;14.73;;
22166;SDS011;11249;52.468;13.776;2023-05-21T08:15:45;18.15;;;16.20;;
22166;SDS011;11249;52.468;13.776;2023-05-21T08:18:12;18.85;;;15.45;;
22166;SDS011;11249;52.468;13.776;2023-05-21T08:20:39;17.77;;;13.70;;
22166;SDS011;11249;52.468;13.776;2023-05-21T08:23:06;16.30;;;13.88;;
22166;SDS011;11249;52.468;13.776;2023-05-21T08:25:33;15.68;;;14.07;;
22166;SDS011;11249;52.468;13.776;2023-05-21T08:28:00;14.88;;;13.35;;
22166;SDS011;11249;52.468;13.776;2023-05-21T08:30:26;14.52;;;13.05;;
22166;SDS011;11249;52.468;13.776;2023-05-21T08:32:53;15.18;;;13.48;;
22166;SDS011;11249;52.468;13.776;2023-05-21T08:35:20;14.88;;;13.35;;
22166;SDS011;11249;52.468;13.776;2023-05-21T08:37:47;14.50;;;12.82;;
22166;SDS011;11249;52.468;13.776;2023-05-21T08:40:14;14.30;;;12.73;;
22166;SDS011;11249;52.468;13.776;2023-05-21T08:42:44;15.90;;;12.65;;
22166;SDS011;11249;52.468;13.776;2023-05-21T08:45:12;14.43;;;12.65;;
22166;SDS011;11249;52.468;13.776;2023-05-21T08:47:41;15.57;;;11.93;;
22166;SDS011;11249;52.468;13.776;2023-05-21T08:50:09;14.07;;;11.52;;
22166;SDS011;11249;52.468;13.776;2023-05-21T08:52:37;14.65;;;11.98;;
22166;SDS011;11249;52.468;13.776;2023-05-21T08:55:05;14.20;;;11.90;;
22166;SDS011;11249;52.468;13.776;2023-05-21T08:57:32;14.57;;;11.30;;
22166;SDS011;11249;52.468;13.776;2023-05-21T08:59:59;12.18;;;10.93;;
22166;SDS011;11249;52.468;13.776;2023-05-21T09:02:32;13.60;;;11.27;;
22166;SDS011;11249;52.468;13.776;2023-05-21T09:04:59;12.75;;;10.13;;
22166;SDS011;11249;52.468;13.776;2023-05-21T09:07:28;12.13;;;10.80;;
22166;SDS011;11249;52.468;13.776;2023-05-21T09:09:57;15.20;;;10.20;;
22166;SDS011;11249;52.468;13.776;2023-05-21T09:12:31;11.77;;;10.57;;
22166;SDS011;11249;52.468;13.776;2023-05-21T09:14:58;12.27;;;10.52;;
22166;SDS011;11249;52.468;13.776;2023-05-21T09:17:26;11.63;;;10.13;;
22166;SDS011;11249;52.468;13.776;2023-05-21T09:20:09;12.10;;;10.00;;
22166;SDS011;11249;52.468;13.776;2023-05-21T09:22:41;19.25;;;11.98;;
22166;SDS011;11249;52.468;13.776;2023-05-21T09:25:09;12.15;;;9.77;;
22166;SDS011;11249;52.468;13.776;2023-05-21T09:27:38;12.93;;;9.73;;
22166;SDS011;11249;52.468;13.776;2023-05-21T09:30:12;11.63;;;10.52;;
22166;SDS011;11249;52.468;13.776;2023-05-21T09:32:40;13.15;;;10.23;;
22166;SDS011;11249;52.468;13.776;2023-05-21T09:35:12;13.95;;;9.35;;
22166;SDS011;11249;52.468;13.776;2023-05-21T09:37:40;11.50;;;9.68;;
22166;SDS011;11249;52.468;13.776;2023-05-21T09:40:14;10.27;;;9.23;;
22166;SDS011;11249;52.468;13.776;2023-05-21T09:42:44;9.88;;;8.88;;
22166;SDS011;11249;52.468;13.776;2023-05-21T09:45:19;11.27;;;8.98;;
22166;SDS011;11249;52.468;13.776;2023-05-21T09:47:55;10.10;;;9.05;;
22166;SDS011;11249;52.468;13.776;2023-05-21T09:54:03;10.07;;;8.52;;
22166;SDS011;11249;52.468;13.776;2023-05-21T09:56:30;13.77;;;8.43;;
22166;SDS011;11249;52.468;13.776;2023-05-21T09:58:58;10.80;;;8.15;;
22166;SDS011;11249;52.468;13.776;2023-05-21T10:01:27;13.57;;;8.38;;
22166;SDS011;11249;52.468;13.776;2023-05-21T10:03:57;12.48;;;7.53;;
22166;SDS011;11249;52.468;13.776;2023-05-21T10:06:27;9.93;;;7.70;;
22166;SDS011;11249;52.468;13.776;2023-05-21T10:08:56;9.88;;;7.80;;
22166;SDS011;11249;52.468;13.776;2023-05-21T10:11:30;10.48;;;7.72;;
22166;SDS011;11249;52.468;13.776;2023-05-21T10:14:08;10.70;;;8.32;;
22166;SDS011;11249;52.468;13.776;2023-05-21T10:16:40;9.98;;;7.80;;
22166;SDS011;11249;52.468;13.776;2023-05-21T10:19:09;9.05;;;7.45;;
22166;SDS011;11249;52.468;13.776;2023-05-21T10:21:37;8.45;;;7.57;;
22166;SDS011;11249;52.468;13.776;2023-05-21T10:24:05;8.43;;;7.63;;
22166;SDS011;11249;52.468;13.776;2023-05-21T10:26:34;10.87;;;7.70;;
22166;SDS011;11249;52.468;13.776;2023-05-21T10:29:01;12.13;;;7.78;;
22166;SDS011;11249;52.468;13.776;2023-05-21T10:31:28;10.05;;;7.75;;
22166;SDS011;11249;52.468;13.776;2023-05-21T10:33:56;8.02;;;7.10;;
22166;SDS011;11249;52.468;13.776;2023-05-21T10:36:23;9.68;;;7.30;;
22166;SDS011;11249;52.468;13.776;2023-05-21T10:38:50;12.65;;;7.13;;
22166;SDS011;11249;52.468;13.776;2023-05-21T10:41:18;10.05;;;7.55;;
22166;SDS011;11249;52.468;13.776;2023-05-21T10:43:55;7.90;;;6.75;;
22166;SDS011;11249;52.468;13.776;2023-05-21T10:46:42;9.07;;;7.55;;
22166;SDS011;11249;52.468;13.776;2023-05-21T10:49:40;8.52;;;7.07;;
22166;SDS011;11249;52.468;13.776;2023-05-21T10:55:48;12.27;;;7.47;;
22166;SDS011;11249;52.468;13.776;2023-05-21T10:58:40;7.33;;;6.23;;
22166;SDS011;11249;52.468;13.776;2023-05-21T11:01:28;7.40;;;6.68;;
22166;SDS011;11249;52.468;13.776;2023-05-21T11:04:02;9.45;;;6.63;;
22166;SDS011;11249;52.468;13.776;2023-05-21T11:06:31;7.07;;;5.95;;
22166;SDS011;11249;52.468;13.776;2023-05-21T11:09:01;9.23;;;6.85;;
22166;SDS011;11249;52.468;13.776;2023-05-21T11:11:43;6.82;;;5.82;;
22166;SDS011;11249;52.468;13.776;2023-05-21T11:17:12;8.93;;;6.25;;
22166;SDS011;11249;52.468;13.776;2023-05-21T11:19:42;9.63;;;6.57;;
22166;SDS011;11249;52.468;13.776;2023-05-21T11:22:19;11.35;;;6.55;;
22166;SDS011;11249;52.468;13.776;2023-05-21T11:24:47;7.32;;;5.85;;
22166;SDS011;11249;52.468;13.776;2023-05-21T11:27:29;9.82;;;5.70;;
22166;SDS011;11249;52.468;13.776;2023-05-21T11:30:06;7.15;;;6.05;;
22166;SDS011;11249;52.468;13.776;2023-05-21T11:35:56;9.02;;;6.00;;
22166;SDS011;11249;52.468;13.776;2023-05-21T11:38:27;9.13;;;5.80;;
22166;SDS011;11249;52.468;13.776;2023-05-21T11:41:00;6.20;;;5.60;;
22166;SDS011;11249;52.468;13.776;2023-05-21T11:43:28;8.52;;;5.50;;
22166;SDS011;11249;52.468;13.776;2023-05-21T11:45:55;7.45;;;6.10;;
22166;SDS011;11249;52.468;13.776;2023-05-21T11:48:23;8.85;;;5.55;;
22166;SDS011;11249;52.468;13.776;2023-05-21T11:50:53;11.35;;;5.72;;
22166;SDS011;11249;52.468;13.776;2023-05-21T11:53:20;8.68;;;5.97;;
22166;SDS011;11249;52.468;13.776;2023-05-21T11:55:47;7.47;;;6.55;;
22166;SDS011;11249;52.468;13.776;2023-05-21T11:58:17;6.82;;;6.13;;
22166;SDS011;11249;52.468;13.776;2023-05-21T12:00:44;8.07;;;6.18;;
22166;SDS011;11249;52.468;13.776;2023-05-21T12:03:12;7.07;;;5.55;;
22166;SDS011;11249;52.468;13.776;2023-05-21T12:05:46;9.25;;;5.75;;
22166;SDS011;11249;52.468;13.776;2023-05-21T12:08:20;7.22;;;6.10;;
22166;SDS011;11249;52.468;13.776;2023-05-21T12:10:57;7.30;;;6.20;;
22166;SDS011;11249;52.468;13.776;2023-05-21T12:13:25;7.45;;;6.30;;
22166;SDS011;11249;52.468;13.776;2023-05-21T12:15:52;6.07;;;5.47;;
22166;SDS011;11249;52.468;13.776;2023-05-21T12:18:19;7.10;;;5.93;;
22166;SDS011;11249;52.468;13.776;2023-05-21T12:20:47;6.45;;;5.82;;
22166;SDS011;11249;52.468;13.776;2023-05-21T12:23:22;8.52;;;5.95;;
22166;SDS011;11249;52.468;13.776;2023-05-21T12:25:49;8.93;;;6.95;;
22166;SDS011;11249;52.468;13.776;2023-05-21T12:28:17;7.47;;;6.30;;
22166;SDS011;11249;52.468;13.776;2023-05-21T12:30:45;8.32;;;6.28;;
22166;SDS011;11249;52.468;13.776;2023-05-21T12:33:13;7.57;;;5.75;;
22166;SDS011;11249;52.468;13.776;2023-05-21T12:35:39;9.40;;;6.13;;
22166;SDS011;11249;52.468;13.776;2023-05-21T12:38:06;10.93;;;6.10;;
22166;SDS011;11249;52.468;13.776;2023-05-21T12:40:35;10.68;;;5.55;;
22166;SDS011;11249;52.468;13.776;2023-05-21T12:43:04;10.73;;;6.65;;
22166;SDS011;11249;52.468;13.776;2023-05-21T12:45:31;7.10;;;6.35;;
22166;SDS011;11249;52.468;13.776;2023-05-21T12:48:01;8.88;;;5.88;;
22166;SDS011;11249;52.468;13.776;2023-05-21T12:50:28;8.27;;;6.60;;
22166;SDS011;11249;52.468;13.776;2023-05-21T12:52:56;7.60;;;6.50;;
22166;SDS011;11249;52.468;13.776;2023-05-21T12:55:23;7.50;;;6.10;;
22166;SDS011;11249;52.468;13.776;2023-05-21T12:57:59;8.52;;;5.57;;
22166;SDS011;11249;52.468;13.776;2023-05-21T13:00:28;10.43;;;6.13;;
22166;SDS011;11249;52.468;13.776;2023-05-21T13:02:57;12.82;;;6.38;;
22166;SDS011;11249;52.468;13.776;2023-05-21T13:05:26;6.72;;;6.13;;
22166;SDS011;11249;52.468;13.776;2023-05-21T13:07:53;8.57;;;5.75;;
22166;SDS011;11249;52.468;13.776;2023-05-21T13:10:19;8.88;;;5.35;;
22166;SDS011;11249;52.468;13.776;2023-05-21T13:12:46;6.65;;;5.93;;
22166;SDS011;11249;52.468;13.776;2023-05-21T13:15:13;9.95;;;5.85;;
22166;SDS011;11249;52.468;13.776;2023-05-21T13:17:40;7.43;;;5.45;;
22166;SDS011;11249;52.468;13.776;2023-05-21T13:20:10;9.65;;;5.82;;
22166;SDS011;11249;52.468;13.776;2023-05-21T13:22:39;7.82;;;5.38;;
22166;SDS011;11249;52.468;13.776;2023-05-21T13:25:13;7.20;;;5.68;;
22166;SDS011;11249;52.468;13.776;2023-05-21T13:27:47;8.98;;;5.43;;
22166;SDS011;11249;52.468;13.776;2023-05-21T13:30:14;6.80;;;5.35;;
22166;SDS011;11249;52.468;13.776;2023-05-21T13:32:41;9.00;;;5.97;;
22166;SDS011;11249;52.468;13.776;2023-05-21T13:35:08;9.13;;;5.97;;
22166;SDS011;11249;52.468;13.776;2023-05-21T13:37:40;5.85;;;4.85;;
22166;SDS011;11249;52.468;13.776;2023-05-21T13:40:10;11.07;;;5.53;;
22166;SDS011;11249;52.468;13.776;2023-05-21T13:42:45;6.95;;;5.25;;
22166;SDS011;11249;52.468;13.776;2023-05-21T13:45:14;8.57;;;5.18;;
22166;SDS011;11249;52.468;13.776;2023-05-21T13:47:42;5.75;;;5.20;;
22166;SDS011;11249;52.468;13.776;2023-05-21T13:50:10;9.57;;;5.88;;
22166;SDS011;11249;52.468;13.776;2023-05-21T13:52:37;10.32;;;5.30;;
22166;SDS011;11249;52.468;13.776;2023-05-21T13:55:04;5.75;;;5.25;;
22166;SDS011;11249;52.468;13.776;2023-05-21T13:57:31;11.75;;;6.10;;
22166;SDS011;11249;52.468;13.776;2023-05-21T13:59:58;5.95;;;5.35;;
22166;SDS011;11249;52.468;13.776;2023-05-21T14:02:26;9.73;;;5.40;;
22166;SDS011;11249;52.468;13.776;2023-05-21T14:04:53;8.57;;;5.25;;
22166;SDS011;11249;52.468;13.776;2023-05-21T14:07:20;5.97;;;4.78;;
22166;SDS011;11249;52.468;13.776;2023-05-21T14:09:47;6.70;;;5.43;;
22166;SDS011;11249;52.468;13.776;2023-05-21T14:12:14;8.43;;;5.10;;
22166;SDS011;11249;52.468;13.776;2023-05-21T14:14:41;11.30;;;5.60;;
22166;SDS011;11249;52.468;13.776;2023-05-21T14:17:08;6.60;;;4.95;;
22166;SDS011;11249;52.468;13.776;2023-05-21T14:19:35;9.70;;;5.38;;
22166;SDS011;11249;52.468;13.776;2023-05-21T14:22:02;7.80;;;4.90;;
22166;SDS011;11249;52.468;13.776;2023-05-21T14:24:28;7.75;;;4.90;;
22166;SDS011;11249;52.468;13.776;2023-05-21T14:26:55;8.18;;;4.90;;
22166;SDS011;11249;52.468;13.776;2023-05-21T14:29:22;8.93;;;5.15;;
22166;SDS011;11249;52.468;13.776;2023-05-21T14:31:49;9.13;;;5.65;;
22166;SDS011;11249;52.468;13.776;2023-05-21T14:34:16;6.93;;;4.57;;
22166;SDS011;11249;52.468;13.776;2023-05-21T14:36:42;6.22;;;4.60;;
22166;SDS011;11249;52.468;13.776;2023-05-21T14:39:09;5.53;;;4.93;;
22166;SDS011;11249;52.468;13.776;2023-05-21T14:41:39;6.97;;;5.20;;